createdAt,value
2023-05-06T00:01:44.466Z,20.11
2023-05-06T00:04:12.610Z,20.14
2023-05-06T00:06:41.819Z,20.15
2023-05-06T00:09:11.607Z,20.19
2023-05-06T00:11:39.868Z,20.12
2023-05-06T00:14:08.187Z,20.07
2023-05-06T00:16:36.378Z,20.06
2023-05-06T00:19:04.471Z,20.03
2023-05-06T00:21:32.705Z,20.01
2023-05-06T00:24:00.836Z,19.98
2023-05-06T00:26:30.426Z,19.94
2023-05-06T00:28:58.624Z,19.89
2023-05-06T00:31:26.876Z,19.87
2023-05-06T00:33:54.961Z,19.86
2023-05-06T00:36:23.088Z,19.77
2023-05-06T00:38:51.268Z,19.67
2023-05-06T00:41:19.537Z,19.56
2023-05-06T00:43:49.083Z,19.45
2023-05-06T00:46:18.443Z,19.42
2023-05-06T00:48:46.794Z,19.43
2023-05-06T00:51:15.287Z,19.40
2023-05-06T00:53:43.439Z,19.38
2023-05-06T00:56:11.752Z,19.30
2023-05-06T00:58:40.595Z,19.27
2023-05-06T01:01:10.235Z,19.20
2023-05-06T01:03:39.690Z,19.07
2023-05-06T01:06:15.221Z,19.00
2023-05-06T01:08:49.038Z,18.95
2023-05-06T01:11:29.240Z,18.88
2023-05-06T01:14:02.451Z,18.88
2023-05-06T01:16:33.420Z,18.84
2023-05-06T01:19:02.523Z,18.85
2023-05-06T01:21:35.001Z,18.82
2023-05-06T01:24:04.679Z,18.78
2023-05-06T01:26:32.787Z,18.75
2023-05-06T01:29:02.162Z,18.71
2023-05-06T01:31:38.628Z,18.54
2023-05-06T01:34:18.731Z,18.35
2023-05-06T01:36:54.226Z,18.23
2023-05-06T01:39:26.794Z,18.18
2023-05-06T01:41:59.367Z,18.15
2023-05-06T01:44:30.580Z,18.13
2023-05-06T01:46:59.565Z,18.14
2023-05-06T01:49:28.771Z,18.14
2023-05-06T01:51:58.056Z,18.19
2023-05-06T01:54:27.768Z,18.19
2023-05-06T01:56:55.852Z,18.23
2023-05-06T01:59:24.013Z,18.27
2023-05-06T02:01:52.234Z,18.30
2023-05-06T02:04:20.432Z,18.39
2023-05-06T02:06:48.600Z,18.43
2023-05-06T02:09:16.835Z,18.45
2023-05-06T02:11:46.380Z,18.45
2023-05-06T02:14:14.512Z,18.44
2023-05-06T02:16:42.632Z,18.42
2023-05-06T02:19:11.070Z,18.38
2023-05-06T02:21:39.207Z,18.38
2023-05-06T02:24:07.827Z,18.38
2023-05-06T02:26:35.902Z,18.35
2023-05-06T02:29:05.429Z,18.33
2023-05-06T02:31:33.908Z,18.30
2023-05-06T02:34:02.021Z,18.32
2023-05-06T02:36:30.322Z,18.39
2023-05-06T02:38:58.529Z,18.45
2023-05-06T02:41:26.714Z,18.49
2023-05-06T02:43:54.900Z,18.42
2023-05-06T02:46:24.530Z,18.45
2023-05-06T02:48:52.823Z,18.46
2023-05-06T02:51:21.005Z,18.49
2023-05-06T02:53:49.388Z,18.50
2023-05-06T02:56:17.632Z,18.45
2023-05-06T02:58:45.860Z,18.39
2023-05-06T03:01:14.110Z,18.35
2023-05-06T03:03:43.761Z,18.36
2023-05-06T03:06:11.990Z,18.39
2023-05-06T03:08:40.134Z,18.42
2023-05-06T03:11:08.439Z,18.38
2023-05-06T03:13:36.619Z,18.38
2023-05-06T03:16:04.915Z,18.40
2023-05-06T03:18:32.987Z,18.40
2023-05-06T03:21:02.489Z,18.39
2023-05-06T03:23:30.645Z,18.39
2023-05-06T03:25:58.768Z,18.38
2023-05-06T03:28:26.915Z,18.36
2023-05-06T03:30:55.078Z,18.26
2023-05-06T03:33:23.552Z,18.15
2023-05-06T03:35:51.676Z,18.06
2023-05-06T03:38:21.427Z,18.01
2023-05-06T03:40:49.610Z,17.93
2023-05-06T03:43:18.056Z,17.91
2023-05-06T03:45:46.117Z,17.90
2023-05-06T03:48:14.442Z,17.88
2023-05-06T03:50:42.859Z,17.87
2023-05-06T03:53:11.393Z,17.86
2023-05-06T03:55:40.871Z,17.74
2023-05-06T03:58:09.122Z,17.55
2023-05-06T04:00:37.261Z,17.47
2023-05-06T04:03:05.550Z,17.41
2023-05-06T04:05:33.800Z,17.36
2023-05-06T04:08:01.972Z,17.36
2023-05-06T04:10:30.310Z,17.41
2023-05-06T04:12:59.969Z,17.48
2023-05-06T04:15:32.054Z,17.54
2023-05-06T04:18:00.309Z,17.60
2023-05-06T04:20:29.115Z,17.63
2023-05-06T04:22:57.244Z,17.65
2023-05-06T04:25:25.360Z,17.63
2023-05-06T04:27:53.460Z,17.60
2023-05-06T04:30:23.124Z,17.54
2023-05-06T04:32:51.284Z,17.50
2023-05-06T04:35:19.586Z,17.41
2023-05-06T04:37:49.058Z,17.32
2023-05-06T04:40:18.117Z,17.28
2023-05-06T04:42:46.265Z,17.20
2023-05-06T04:45:14.466Z,17.19
2023-05-06T04:47:44.012Z,17.20
2023-05-06T04:50:13.016Z,17.20
2023-05-06T04:52:41.264Z,17.24
2023-05-06T04:55:11.335Z,17.26
2023-05-06T04:57:39.815Z,17.29
2023-05-06T05:00:10.689Z,17.27
2023-05-06T05:02:39.321Z,17.28
2023-05-06T05:05:09.838Z,17.26
2023-05-06T05:07:38.316Z,17.26
2023-05-06T05:10:09.207Z,17.29
2023-05-06T05:12:37.515Z,17.27
2023-05-06T05:15:06.856Z,17.33
2023-05-06T05:17:35.074Z,17.30
2023-05-06T05:20:03.337Z,17.32
2023-05-06T05:22:32.930Z,17.38
2023-05-06T05:25:01.127Z,17.43
2023-05-06T05:27:29.264Z,17.37
2023-05-06T05:29:57.795Z,17.34
2023-05-06T05:32:26.594Z,17.28
2023-05-06T05:34:54.966Z,17.29
2023-05-06T05:37:23.099Z,17.31
2023-05-06T05:39:52.829Z,17.31
2023-05-06T05:42:21.083Z,17.39
2023-05-06T05:44:49.165Z,17.50
2023-05-06T05:47:17.329Z,17.68
2023-05-06T05:49:45.677Z,17.83
2023-05-06T05:52:13.849Z,18.00
2023-05-06T05:54:42.091Z,18.12
2023-05-06T05:57:11.757Z,18.23
2023-05-06T05:59:40.949Z,18.34
2023-05-06T06:02:09.045Z,18.53
2023-05-06T06:04:37.161Z,18.72
2023-05-06T06:07:05.621Z,18.83
2023-05-06T06:09:33.788Z,19.02
2023-05-06T06:12:02.114Z,19.29
2023-05-06T06:14:31.696Z,20.03
2023-05-06T06:16:59.844Z,21.14
2023-05-06T06:19:27.949Z,22.29
2023-05-06T06:21:56.223Z,23.29
2023-05-06T06:24:24.357Z,24.12
2023-05-06T06:26:52.444Z,24.80
2023-05-06T06:29:20.632Z,25.31
2023-05-06T06:31:50.287Z,25.68
2023-05-06T06:34:18.397Z,25.99
2023-05-06T06:36:46.577Z,26.20
2023-05-06T06:39:15.026Z,26.40
2023-05-06T06:41:43.510Z,26.75
2023-05-06T06:44:11.702Z,27.31
2023-05-06T06:46:40.121Z,27.71
2023-05-06T06:49:09.706Z,28.14
2023-05-06T06:51:37.919Z,28.63
2023-05-06T06:54:06.388Z,29.33
2023-05-06T06:56:34.614Z,29.92
2023-05-06T06:59:02.756Z,30.54
2023-05-06T07:01:31.089Z,31.01
2023-05-06T07:03:59.225Z,31.48
2023-05-06T07:06:28.991Z,32.11
2023-05-06T07:08:57.242Z,32.71
2023-05-06T07:11:25.491Z,32.93
2023-05-06T07:13:53.644Z,33.11
2023-05-06T07:16:21.756Z,33.37
2023-05-06T07:18:50.794Z,33.47
2023-05-06T07:21:19.022Z,33.80
2023-05-06T07:23:48.507Z,34.28
2023-05-06T07:26:16.699Z,34.72
2023-05-06T07:28:44.913Z,35.22
2023-05-06T07:31:13.102Z,35.67
2023-05-06T07:33:41.295Z,36.02
2023-05-06T07:36:09.745Z,35.99
2023-05-06T07:38:37.825Z,35.82
2023-05-06T07:41:07.532Z,35.70
2023-05-06T07:43:35.613Z,35.96
2023-05-06T07:46:03.803Z,36.41
2023-05-06T07:48:32.727Z,36.99
2023-05-06T07:51:01.974Z,37.52
2023-05-06T07:53:30.076Z,38.14
2023-05-06T07:56:02.246Z,38.68
2023-05-06T07:58:32.037Z,39.15
2023-05-06T08:01:00.742Z,39.46
2023-05-06T08:03:29.218Z,39.80
2023-05-06T08:05:57.571Z,40.00
2023-05-06T08:08:28.107Z,39.92
2023-05-06T08:10:56.393Z,39.89
2023-05-06T08:13:24.674Z,39.92
2023-05-06T08:15:54.564Z,40.34
2023-05-06T08:18:23.413Z,40.79
2023-05-06T08:20:51.841Z,41.14
2023-05-06T08:23:20.144Z,41.66
2023-05-06T08:25:48.354Z,42.08
2023-05-06T08:28:16.591Z,42.26
2023-05-06T08:30:47.725Z,42.41
2023-05-06T08:33:17.455Z,42.86
2023-05-06T08:35:46.106Z,43.47
2023-05-06T08:38:14.249Z,43.84
2023-05-06T08:40:44.972Z,44.01
2023-05-06T08:43:14.727Z,44.12
2023-05-06T08:45:43.424Z,44.66
2023-05-06T08:48:11.596Z,44.80
2023-05-06T08:50:43.709Z,44.77
2023-05-06T08:53:13.026Z,44.91
2023-05-06T08:55:42.984Z,45.56
2023-05-06T08:58:15.821Z,46.05
2023-05-06T09:00:44.792Z,46.41
2023-05-06T09:03:13.094Z,46.82
2023-05-06T09:05:42.845Z,46.91
2023-05-06T09:08:11.740Z,47.21
2023-05-06T09:10:45.030Z,46.80
2023-05-06T09:13:14.177Z,46.19
2023-05-06T09:15:43.143Z,45.97
2023-05-06T09:18:13.136Z,46.65
2023-05-06T09:20:44.209Z,47.10
2023-05-06T09:23:13.210Z,47.16
2023-05-06T09:25:42.068Z,47.53
2023-05-06T09:28:11.846Z,48.51
2023-05-06T09:30:40.950Z,48.90
2023-05-06T09:33:09.653Z,48.70
2023-05-06T09:35:39.488Z,48.63
2023-05-06T09:38:10.276Z,48.80
2023-05-06T09:40:39.205Z,49.07
2023-05-06T09:43:08.976Z,49.35
2023-05-06T09:45:37.401Z,49.78
2023-05-06T09:48:05.882Z,49.84
2023-05-06T09:50:34.120Z,49.97
2023-05-06T09:53:05.753Z,49.92
2023-05-06T09:55:36.357Z,50.04
2023-05-06T09:58:06.502Z,50.61
2023-05-06T10:00:35.272Z,50.49
2023-05-06T10:03:04.964Z,50.15
2023-05-06T10:05:34.926Z,50.16
2023-05-06T10:08:04.455Z,50.27
2023-05-06T10:10:35.320Z,50.32
2023-05-06T10:13:04.730Z,50.53
2023-05-06T10:15:34.449Z,50.73
2023-05-06T10:18:02.708Z,50.49
2023-05-06T10:20:32.840Z,49.83
2023-05-06T10:23:10.757Z,48.20
2023-05-06T10:25:42.583Z,45.94
2023-05-06T10:28:16.486Z,43.58
2023-05-06T10:31:00.157Z,41.57
2023-05-06T10:33:29.984Z,40.05
2023-05-06T10:36:08.971Z,38.40
2023-05-06T10:38:43.483Z,36.64
2023-05-06T10:41:13.877Z,35.55
2023-05-06T10:43:43.822Z,35.08
2023-05-06T10:46:14.156Z,34.81
2023-05-06T10:49:26.021Z,34.53
2023-05-06T10:52:13.519Z,33.88
2023-05-06T10:54:52.564Z,33.59
2023-05-06T10:57:27.049Z,33.54
2023-05-06T10:59:56.086Z,33.48
2023-05-06T11:02:25.496Z,33.44
2023-05-06T11:05:01.955Z,33.46
2023-05-06T11:07:30.140Z,33.04
2023-05-06T11:09:59.629Z,32.80
2023-05-06T11:12:49.299Z,32.57
2023-05-06T11:15:22.498Z,32.65
2023-05-06T11:17:50.819Z,32.71
2023-05-06T11:20:23.789Z,32.46
2023-05-06T11:22:52.338Z,32.34
2023-05-06T11:25:43.266Z,32.19
2023-05-06T11:28:14.050Z,32.11
2023-05-06T11:30:43.941Z,32.03
2023-05-06T11:33:20.400Z,31.99
2023-05-06T11:35:49.519Z,31.94
2023-05-06T11:38:17.786Z,31.85
2023-05-06T11:40:46.268Z,31.71
2023-05-06T11:43:17.574Z,31.65
2023-05-06T11:45:46.605Z,31.66
2023-05-06T11:48:14.968Z,31.58
2023-05-06T11:50:47.480Z,31.50
2023-05-06T11:53:19.099Z,31.50
2023-05-06T11:55:48.066Z,31.54
2023-05-06T11:58:20.066Z,31.51
2023-05-06T12:00:51.462Z,31.45
2023-05-06T12:03:20.643Z,31.50
2023-05-06T12:05:49.514Z,31.58
2023-05-06T12:08:27.569Z,31.63
2023-05-06T12:10:58.941Z,31.69
2023-05-06T12:13:29.487Z,31.68
2023-05-06T12:15:59.537Z,31.68
2023-05-06T12:18:28.713Z,31.55
2023-05-06T12:20:57.628Z,31.57
2023-05-06T12:23:25.826Z,31.61
2023-05-06T12:26:04.034Z,31.57
2023-05-06T12:28:34.986Z,31.60
2023-05-06T12:31:18.837Z,31.68
2023-05-06T12:33:49.152Z,31.62
2023-05-06T12:36:17.399Z,31.48
2023-05-06T12:38:52.917Z,31.36
2023-05-06T12:41:21.456Z,31.27
2023-05-06T12:43:52.927Z,31.23
2023-05-06T12:46:21.336Z,31.21
2023-05-06T12:49:00.255Z,31.08
2023-05-06T12:51:28.919Z,30.97
2023-05-06T12:53:57.031Z,30.94
2023-05-06T12:56:25.260Z,30.92
2023-05-06T12:59:04.886Z,30.98
2023-05-06T13:01:33.242Z,30.97
2023-05-06T13:04:01.507Z,30.97
2023-05-06T13:06:29.629Z,30.91
2023-05-06T13:08:57.784Z,30.82
2023-05-06T13:11:25.988Z,30.84
2023-05-06T13:13:54.202Z,30.90
2023-05-06T13:16:23.856Z,30.91
2023-05-06T13:18:52.139Z,30.87
2023-05-06T13:21:20.350Z,30.80
2023-05-06T13:23:48.748Z,30.78
2023-05-06T13:26:17.827Z,30.75
2023-05-06T13:28:46.135Z,30.72
2023-05-06T13:31:14.330Z,30.69
2023-05-06T13:33:43.909Z,30.63
2023-05-06T13:36:12.031Z,30.61
2023-05-06T13:38:40.102Z,30.54
2023-05-06T13:41:09.193Z,30.45
2023-05-06T13:43:37.401Z,30.42
2023-05-06T13:46:05.681Z,30.41
2023-05-06T13:48:34.256Z,30.32
2023-05-06T13:51:03.851Z,30.22
2023-05-06T13:53:32.063Z,30.20
2023-05-06T13:56:00.177Z,30.24
2023-05-06T13:58:28.298Z,30.29
2023-05-06T14:00:56.449Z,30.31
2023-05-06T14:03:24.553Z,30.28
2023-05-06T14:05:52.843Z,30.30
2023-05-06T14:08:22.383Z,30.29
2023-05-06T14:10:50.486Z,30.30
2023-05-06T14:13:18.657Z,30.28
2023-05-06T14:15:46.949Z,30.19
2023-05-06T14:18:15.183Z,30.09
2023-05-06T14:20:43.316Z,29.99
2023-05-06T14:23:11.435Z,29.94
2023-05-06T14:25:40.956Z,29.90
2023-05-06T14:28:10.559Z,29.80
2023-05-06T14:30:38.909Z,29.80
2023-05-06T14:33:07.310Z,29.65
2023-05-06T14:35:35.471Z,29.49
2023-05-06T14:38:03.612Z,29.39
2023-05-06T14:40:31.784Z,29.35
2023-05-06T14:43:01.456Z,29.33
2023-05-06T14:45:29.742Z,29.25
2023-05-06T14:47:58.120Z,29.22
2023-05-06T14:50:26.317Z,29.27
2023-05-06T14:52:54.461Z,29.36
2023-05-06T14:55:22.809Z,29.50
2023-05-06T14:57:51.199Z,29.62
2023-05-06T15:00:21.688Z,29.70
2023-05-06T15:02:49.861Z,29.74
2023-05-06T15:05:17.994Z,29.77
2023-05-06T15:07:46.440Z,29.81
2023-05-06T15:10:15.136Z,29.82
2023-05-06T15:12:43.255Z,29.86
2023-05-06T15:15:11.715Z,29.86
2023-05-06T15:17:41.911Z,29.81
2023-05-06T15:20:11.105Z,29.73
2023-05-06T15:22:39.813Z,29.64
2023-05-06T15:25:12.420Z,29.55
2023-05-06T15:27:45.050Z,29.48
2023-05-06T15:30:13.599Z,29.43
2023-05-06T15:32:43.192Z,29.30
2023-05-06T15:35:11.547Z,29.19
2023-05-06T15:37:39.954Z,29.15
2023-05-06T15:40:11.413Z,29.12
2023-05-06T15:42:40.168Z,29.08
2023-05-06T15:45:09.093Z,28.98
2023-05-06T15:47:37.505Z,28.80
2023-05-06T15:52:39.082Z,28.36
2023-05-06T15:55:08.232Z,28.17
2023-05-06T15:57:36.952Z,28.02
2023-05-06T16:00:08.253Z,27.96
2023-05-06T16:02:36.611Z,27.92
2023-05-06T16:05:06.878Z,27.88
2023-05-06T16:07:35.238Z,27.83
2023-05-06T16:10:03.859Z,27.80
2023-05-06T16:12:32.791Z,27.81
2023-05-06T16:15:01.151Z,27.82
2023-05-06T16:17:29.290Z,27.77
2023-05-06T16:19:57.549Z,27.70
2023-05-06T16:22:27.073Z,27.73
2023-05-06T16:24:55.198Z,27.72
2023-05-06T16:27:23.335Z,27.72
2023-05-06T16:29:51.410Z,27.63
2023-05-06T16:32:19.583Z,27.49
2023-05-06T16:34:47.787Z,27.33
2023-05-06T16:37:16.595Z,27.21
2023-05-06T16:39:46.799Z,27.04
2023-05-06T16:42:14.999Z,26.91
2023-05-06T16:44:43.081Z,26.75
2023-05-06T16:47:11.287Z,26.65
2023-05-06T16:49:39.696Z,26.54
2023-05-06T16:52:07.892Z,26.41
2023-05-06T16:54:35.969Z,26.26
2023-05-06T16:57:05.781Z,26.20
2023-05-06T16:59:33.997Z,26.13
2023-05-06T17:02:02.202Z,26.00
2023-05-06T17:04:30.405Z,25.85
2023-05-06T17:06:58.571Z,25.65
2023-05-06T17:09:26.655Z,25.47
2023-05-06T17:11:54.780Z,25.24
2023-05-06T17:14:24.247Z,25.19
2023-05-06T17:16:52.563Z,25.17
2023-05-06T17:19:20.816Z,25.07
2023-05-06T17:21:49.165Z,25.00
2023-05-06T17:24:17.350Z,24.99
2023-05-06T17:26:45.504Z,25.02
2023-05-06T17:29:13.832Z,24.99
2023-05-06T17:31:43.363Z,24.83
2023-05-06T17:34:11.551Z,24.72
2023-05-06T17:36:39.638Z,24.65
2023-05-06T17:39:07.908Z,24.67
2023-05-06T17:41:36.315Z,24.70
2023-05-06T17:44:04.529Z,24.64
2023-05-06T17:46:33.586Z,24.56
2023-05-06T17:49:03.205Z,24.44
2023-05-06T17:51:31.592Z,24.36
2023-05-06T17:53:59.693Z,24.30
2023-05-06T17:56:28.090Z,24.25
2023-05-06T17:58:56.589Z,24.16
2023-05-06T18:01:25.035Z,24.10
2023-05-06T18:03:53.478Z,24.09
2023-05-06T18:06:23.028Z,24.10
2023-05-06T18:08:51.148Z,24.05
2023-05-06T18:11:19.686Z,23.99
2023-05-06T18:13:47.832Z,23.96
2023-05-06T18:16:16.076Z,23.82
2023-05-06T18:18:44.237Z,23.76
2023-05-06T18:21:12.396Z,23.76
2023-05-06T18:23:42.014Z,23.77
2023-05-06T18:26:10.112Z,23.76
2023-05-06T18:28:38.859Z,23.79
2023-05-06T18:31:07.698Z,23.76
2023-05-06T18:33:36.327Z,23.70
2023-05-06T18:36:05.351Z,23.66
2023-05-06T18:38:33.527Z,23.51
2023-05-06T18:41:03.692Z,23.45
2023-05-06T18:43:31.976Z,23.41
2023-05-06T18:46:00.262Z,23.37
2023-05-06T18:48:31.001Z,23.33
2023-05-06T18:51:11.183Z,23.28
2023-05-06T18:53:39.550Z,23.25
2023-05-06T18:58:39.213Z,23.16
2023-05-06T19:01:08.572Z,23.14
2023-05-06T19:03:37.149Z,23.12
2023-05-06T19:06:08.178Z,23.11
2023-05-06T19:08:37.080Z,23.12
2023-05-06T19:11:05.423Z,23.12
2023-05-06T19:13:35.065Z,23.10
2023-05-06T19:16:03.234Z,23.10
2023-05-06T19:18:31.345Z,23.03
2023-05-06T19:20:59.452Z,22.96
2023-05-06T19:23:27.953Z,22.95
2023-05-06T19:25:56.107Z,22.93
2023-05-06T19:28:24.249Z,22.92
2023-05-06T19:30:53.807Z,22.91
2023-05-06T19:33:22.303Z,22.93
2023-05-06T19:35:50.469Z,22.91
2023-05-06T19:38:19.697Z,22.90
2023-05-06T19:40:47.787Z,22.91
2023-05-06T19:43:15.991Z,22.88
2023-05-06T19:45:44.186Z,22.89
2023-05-06T19:48:14.769Z,22.90
2023-05-06T19:50:43.162Z,22.87
2023-05-06T19:53:11.299Z,22.75
2023-05-06T19:55:39.604Z,22.62
2023-05-06T19:58:07.916Z,22.49
2023-05-06T20:00:36.238Z,22.49
2023-05-06T20:03:06.247Z,22.51
2023-05-06T20:05:36.048Z,22.54
2023-05-06T20:08:04.261Z,22.57
2023-05-06T20:10:32.667Z,22.59
2023-05-06T20:13:00.812Z,22.57
2023-05-06T20:15:30.025Z,22.52
2023-05-06T20:17:58.487Z,22.50
2023-05-06T20:20:34.265Z,22.45
2023-05-06T20:23:04.237Z,22.41
2023-05-06T20:25:32.677Z,22.37
2023-05-06T20:28:01.958Z,22.31
2023-05-06T20:30:30.315Z,22.26
2023-05-06T20:32:58.543Z,22.23
2023-05-06T20:35:27.227Z,22.11
2023-05-06T20:37:55.935Z,22.09
2023-05-06T20:40:25.517Z,22.05
2023-05-06T20:42:53.759Z,21.99
2023-05-06T20:45:22.455Z,21.89
2023-05-06T20:47:50.976Z,21.82
2023-05-06T20:50:19.433Z,21.74
2023-05-06T20:52:48.910Z,21.66
2023-05-06T20:55:17.257Z,21.52
2023-05-06T20:57:46.896Z,21.39
2023-05-06T21:00:15.624Z,21.31
2023-05-06T21:02:44.071Z,21.26
2023-05-06T21:05:12.554Z,21.23
2023-05-06T21:07:41.154Z,21.23
2023-05-06T21:10:11.314Z,21.22
2023-05-06T21:12:39.797Z,21.21
2023-05-06T21:15:10.918Z,21.19
2023-05-06T21:17:39.261Z,21.16
2023-05-06T21:20:08.820Z,21.15
2023-05-06T21:22:37.033Z,21.09
2023-05-06T21:25:05.802Z,21.03
2023-05-06T21:27:33.999Z,21.01
2023-05-06T21:30:02.206Z,20.99
2023-05-06T21:32:33.420Z,21.00
2023-05-06T21:35:03.368Z,20.98
2023-05-06T21:37:32.010Z,20.95
2023-05-06T21:40:02.841Z,20.89
2023-05-06T21:42:31.196Z,20.84
2023-05-06T21:44:59.368Z,20.82
2023-05-06T21:47:27.552Z,20.87
2023-05-06T21:49:57.232Z,20.91
2023-05-06T21:52:25.955Z,20.94
2023-05-06T21:54:54.828Z,20.97
2023-05-06T21:57:22.999Z,20.95
2023-05-06T21:59:52.078Z,20.90
2023-05-06T22:02:20.371Z,20.83
2023-05-06T22:04:48.664Z,20.76
2023-05-06T22:07:18.232Z,20.74
2023-05-06T22:09:46.454Z,20.71
2023-05-06T22:12:15.629Z,20.66
2023-05-06T22:14:43.919Z,20.66
2023-05-06T22:17:12.340Z,20.64
2023-05-06T22:19:41.796Z,20.64
2023-05-06T22:22:10.461Z,20.66
2023-05-06T22:24:40.810Z,20.66
2023-05-06T22:27:08.931Z,20.60
2023-05-06T22:29:37.196Z,20.62
2023-05-06T22:32:05.849Z,20.60
2023-05-06T22:34:34.071Z,20.53
2023-05-06T22:37:02.232Z,20.42
2023-05-06T22:39:30.420Z,20.29
2023-05-06T22:42:00.112Z,20.21
2023-05-06T22:44:28.349Z,20.17
2023-05-06T22:46:56.572Z,20.12
2023-05-06T22:49:28.876Z,20.11
2023-05-06T22:51:57.567Z,20.09
2023-05-06T22:54:25.829Z,20.07
2023-05-06T22:56:54.154Z,20.06
2023-05-06T22:59:23.794Z,20.09
2023-05-06T23:01:52.135Z,20.08
2023-05-06T23:04:20.333Z,20.10
2023-05-06T23:06:48.622Z,20.11
2023-05-06T23:09:16.802Z,20.15
2023-05-06T23:11:45.013Z,20.16
2023-05-06T23:14:13.318Z,20.23
2023-05-06T23:16:42.959Z,20.25
2023-05-06T23:19:11.324Z,20.27
2023-05-06T23:21:41.408Z,20.28
2023-05-06T23:24:10.182Z,20.30
2023-05-06T23:26:38.470Z,20.29
2023-05-06T23:29:06.790Z,20.25
2023-05-06T23:31:35.026Z,20.19
2023-05-06T23:34:04.816Z,20.14
2023-05-06T23:36:32.989Z,20.13
2023-05-06T23:39:01.195Z,20.07
2023-05-06T23:41:29.335Z,20.02
2023-05-06T23:43:57.417Z,19.88
2023-05-06T23:46:25.625Z,19.75
2023-05-06T23:48:54.158Z,19.60
2023-05-06T23:51:23.687Z,19.58
2023-05-06T23:53:51.807Z,19.57
2023-05-06T23:56:20.611Z,19.62
2023-05-06T23:58:48.810Z,19.66
